F/V Manathia — FGSL — position and weather

sailwx.info

Track history (hours):
 
Tides and Currents Weather Stations Pressure Air Temp Water Temp Dewpoint Dewpoint Depression Visibility Wind Speed Wind Dir Waves Ship Positions

F/V Manathia

Last reported at 2016-Jul-25 08:33 UTC. Time now 2016-Jul-26 00:43 UTC.
Position N 47°46' W 004°19'.

Length 16 m.

Type: Fishing. MMSI: 228258000.

Date/timePositionNaut miles runAvg speedWind from/ knotsBaromVisibWave heightAir tempDewpointWater temp
2016-Jul-25 08:33N 47°46' W 004°19'16 3.9
2016-Jul-25 04:21N 47°39' W 004°41'14 8.0
2016-Jul-25 02:33N 47°45' W 004°22'  
2016-Jul-22 14:33N 47°48' W 004°17'19 4.3
2016-Jul-22 10:11N 47°40' W 004°42'2 3.3
2016-Jul-22 09:33N 47°39' W 004°40'4 2.0
2016-Jul-22 07:32N 47°40' W 004°46'0 0.1
2016-Jul-22 06:33N 47°40' W 004°46'5 2.4
2016-Jul-22 04:31N 47°38' W 004°39'5 5.5
2016-Jul-22 03:33N 47°40' W 004°32'9 8.9
2016-Jul-22 02:33N 47°45' W 004°21'2 0.1
2016-Jul-21 14:15N 47°44' W 004°21'7 7.5
2016-Jul-21 13:15N 47°38' W 004°29'10 2.0
2016-Jul-21 08:25N 47°40' W 004°43'3 3.0
2016-Jul-21 07:33N 47°38' W 004°40'4 3.5
2016-Jul-21 06:33N 47°38' W 004°35'6 2.7
2016-Jul-21 04:24N 47°38' W 004°26'4 4.6
2016-Jul-21 03:32N 47°41' W 004°23'14 0.7
2016-Jul-20 08:30N 47°40' W 004°43'3 2.9
2016-Jul-20 07:33N 47°38' W 004°40'3 3.4
2016-Jul-20 06:33N 47°37' W 004°35'3 2.8
2016-Jul-20 05:33N 47°36' W 004°32'0 0.3
2016-Jul-20 04:31N 47°36' W 004°31'8 6.0
2016-Jul-20 03:11N 47°42' W 004°23'6 8.9
2016-Jul-20 02:33N 47°46' W 004°19'2 0.2
2016-Jul-19 15:28N 47°48' W 004°17'4 3.3
2016-Jul-19 14:20N 47°45' W 004°20'7 8.6
2016-Jul-19 13:30N 47°39' W 004°27'4 3.6
2016-Jul-19 12:31N 47°37' W 004°31'1 0.7
2016-Jul-19 11:33N 47°36' W 004°31'1 0.6
2016-Jul-19 10:31N 47°36' W 004°32'3 3.1
2016-Jul-19 09:33N 47°38' W 004°35'2 2.1
2016-Jul-19 08:33N 47°36' W 004°33'1 0.8
2016-Jul-19 07:33N 47°37' W 004°34'1 0.4
2016-Jul-19 04:33N 47°36' W 004°32'4 3.8
2016-Jul-19 03:33N 47°38' W 004°27'8 7.7
2016-Jul-19 02:33N 47°44' W 004°21'18 0.9
2016-Jul-18 05:33N 47°36' W 004°45'  
2016-Jul-15 14:33N 47°48' W 004°17'8 7.9
2016-Jul-15 13:33N 47°42' W 004°26'10 4.7
2016-Jul-15 11:24N 47°39' W 004°40'  
Track history (hours):
 
Tides and Currents Weather Stations Pressure Air Temp Water Temp Dewpoint Dewpoint Depression Visibility Wind Speed Wind Dir Waves Ship Positions

F/V Manathia

Last reported at 2016-Jul-25 08:33 UTC. Time now 2016-Jul-26 00:43 UTC.
Position N 47°46' W 004°19'.

Length 16 m.

Type: Fishing. MMSI: 228258000.

Date/timePositionNaut miles runAvg speedWind from/ knotsBaromVisibWave heightAir tempDewpointWater temp
2016-Jul-25 08:33N 47°46' W 004°19'16 3.9
2016-Jul-25 04:21N 47°39' W 004°41'14 8.0
2016-Jul-25 02:33N 47°45' W 004°22'  
2016-Jul-22 14:33N 47°48' W 004°17'19 4.3
2016-Jul-22 10:11N 47°40' W 004°42'2 3.3
2016-Jul-22 09:33N 47°39' W 004°40'4 2.0
2016-Jul-22 07:32N 47°40' W 004°46'0 0.1
2016-Jul-22 06:33N 47°40' W 004°46'5 2.4
2016-Jul-22 04:31N 47°38' W 004°39'5 5.5
2016-Jul-22 03:33N 47°40' W 004°32'9 8.9
2016-Jul-22 02:33N 47°45' W 004°21'2 0.1
2016-Jul-21 14:15N 47°44' W 004°21'7 7.5
2016-Jul-21 13:15N 47°38' W 004°29'10 2.0
2016-Jul-21 08:25N 47°40' W 004°43'3 3.0
2016-Jul-21 07:33N 47°38' W 004°40'4 3.5
2016-Jul-21 06:33N 47°38' W 004°35'6 2.7
2016-Jul-21 04:24N 47°38' W 004°26'4 4.6
2016-Jul-21 03:32N 47°41' W 004°23'14 0.7
2016-Jul-20 08:30N 47°40' W 004°43'3 2.9
2016-Jul-20 07:33N 47°38' W 004°40'3 3.4
2016-Jul-20 06:33N 47°37' W 004°35'3 2.8
2016-Jul-20 05:33N 47°36' W 004°32'0 0.3
2016-Jul-20 04:31N 47°36' W 004°31'8 6.0
2016-Jul-20 03:11N 47°42' W 004°23'6 8.9
2016-Jul-20 02:33N 47°46' W 004°19'2 0.2
2016-Jul-19 15:28N 47°48' W 004°17'4 3.3
2016-Jul-19 14:20N 47°45' W 004°20'7 8.6
2016-Jul-19 13:30N 47°39' W 004°27'4 3.6
2016-Jul-19 12:31N 47°37' W 004°31'1 0.7
2016-Jul-19 11:33N 47°36' W 004°31'1 0.6
2016-Jul-19 10:31N 47°36' W 004°32'3 3.1
2016-Jul-19 09:33N 47°38' W 004°35'2 2.1
2016-Jul-19 08:33N 47°36' W 004°33'1 0.8
2016-Jul-19 07:33N 47°37' W 004°34'1 0.4
2016-Jul-19 04:33N 47°36' W 004°32'4 3.8
2016-Jul-19 03:33N 47°38' W 004°27'8 7.7
2016-Jul-19 02:33N 47°44' W 004°21'18 0.9
2016-Jul-18 05:33N 47°36' W 004°45'  
2016-Jul-15 14:33N 47°48' W 004°17'8 7.9
2016-Jul-15 13:33N 47°42' W 004°26'10 4.7
2016-Jul-15 11:24N 47°39' W 004°40'  

Dump ship's entire track history